createdAt,value
2018-09-22T00:01:40.308Z,10.73
2018-09-22T00:04:09.427Z,10.65
2018-09-22T00:06:38.603Z,10.63
2018-09-22T00:09:09.262Z,10.60
2018-09-22T00:11:38.443Z,10.53
2018-09-22T00:14:07.731Z,10.50
2018-09-22T00:16:37.287Z,10.46
2018-09-22T00:19:06.683Z,10.45
2018-09-22T00:21:35.850Z,10.41
2018-09-22T00:24:05.180Z,10.39
2018-09-22T00:26:34.376Z,10.43
2018-09-22T00:29:03.541Z,10.43
2018-09-22T00:31:32.696Z,10.42
2018-09-22T00:34:01.884Z,10.42
2018-09-22T00:36:31.081Z,10.41
2018-09-22T00:39:00.236Z,10.38
2018-09-22T00:41:29.407Z,10.41
2018-09-22T00:43:58.876Z,10.46
2018-09-22T00:46:28.028Z,10.45
2018-09-22T00:48:57.200Z,10.50
2018-09-22T00:51:26.408Z,10.50
2018-09-22T00:53:55.560Z,10.50
2018-09-22T00:56:24.727Z,10.49
2018-09-22T00:58:53.888Z,10.48
2018-09-22T01:01:23.141Z,10.46
2018-09-22T01:03:52.341Z,10.48
2018-09-22T01:06:21.472Z,10.47
2018-09-22T01:08:50.603Z,10.47
2018-09-22T01:11:19.997Z,10.47
2018-09-22T01:13:49.357Z,10.50
2018-09-22T01:16:18.581Z,10.54
2018-09-22T01:18:47.731Z,10.59
2018-09-22T01:21:16.884Z,10.64
2018-09-22T01:23:46.013Z,10.71
2018-09-22T01:26:15.175Z,10.76
2018-09-22T01:28:44.322Z,10.80
2018-09-22T01:31:13.487Z,10.86
2018-09-22T01:33:42.936Z,10.88
2018-09-22T01:36:12.177Z,10.90
2018-09-22T01:38:41.317Z,10.92
2018-09-22T01:41:10.483Z,10.93
2018-09-22T01:43:39.669Z,10.87
2018-09-22T01:46:08.893Z,10.83
2018-09-22T01:48:38.084Z,10.72
2018-09-22T01:51:07.204Z,10.67
2018-09-22T01:53:36.364Z,10.64
2018-09-22T01:56:05.516Z,10.61
2018-09-22T01:58:34.678Z,10.57
2018-09-22T02:01:03.862Z,10.59
2018-09-22T02:03:33.043Z,10.55
2018-09-22T02:06:02.239Z,10.50
2018-09-22T02:08:31.708Z,10.51
2018-09-22T02:11:00.890Z,10.48
2018-09-22T02:13:30.055Z,10.46
2018-09-22T02:15:59.234Z,10.42
2018-09-22T02:18:28.432Z,10.38
2018-09-22T02:20:57.628Z,10.35
2018-09-22T02:23:26.881Z,10.29
2018-09-22T02:25:56.040Z,10.28
2018-09-22T02:28:25.198Z,10.28
2018-09-22T02:30:54.329Z,10.30
2018-09-22T02:33:23.480Z,10.26
2018-09-22T02:35:52.672Z,10.22
2018-09-22T02:38:21.886Z,10.21
2018-09-22T02:40:51.108Z,10.19
2018-09-22T02:43:20.252Z,10.18
2018-09-22T02:45:49.515Z,10.14
2018-09-22T02:48:18.719Z,10.15
2018-09-22T02:50:47.926Z,10.10
2018-09-22T02:53:17.132Z,10.09
2018-09-22T02:55:46.325Z,10.09
2018-09-22T02:58:15.658Z,10.10
2018-09-22T03:00:44.789Z,10.06
2018-09-22T03:03:13.924Z,10.08
2018-09-22T03:05:43.142Z,10.06
2018-09-22T03:08:12.575Z,10.06
2018-09-22T03:10:41.675Z,10.05
2018-09-22T03:13:10.847Z,10.05
2018-09-22T03:15:40.046Z,10.03
2018-09-22T03:18:09.204Z,10.05
2018-09-22T03:20:38.364Z,10.07
2018-09-22T03:23:07.677Z,10.08
2018-09-22T03:25:36.880Z,10.16
2018-09-22T03:28:06.070Z,10.19
2018-09-22T03:30:35.343Z,10.27
2018-09-22T03:33:04.505Z,10.25
2018-09-22T03:35:33.808Z,10.23
2018-09-22T03:38:02.997Z,10.19
2018-09-22T03:40:32.220Z,10.22
2018-09-22T03:43:01.724Z,10.23
2018-09-22T03:45:30.905Z,10.23
2018-09-22T03:48:00.141Z,10.24
2018-09-22T03:50:29.306Z,10.22
2018-09-22T03:52:58.712Z,10.20
2018-09-22T03:55:27.873Z,10.19
2018-09-22T03:57:57.053Z,10.15
2018-09-22T04:00:26.260Z,10.13
2018-09-22T04:02:55.445Z,10.11
2018-09-22T04:05:24.651Z,10.13
2018-09-22T04:07:53.844Z,10.13
2018-09-22T04:10:23.103Z,10.10
2018-09-22T04:12:52.317Z,10.09
2018-09-22T04:15:21.611Z,10.07
2018-09-22T04:17:50.788Z,10.05
2018-09-22T04:20:19.963Z,10.03
2018-09-22T04:22:49.196Z,10.01
2018-09-22T04:25:18.372Z,10.01
2018-09-22T04:27:47.614Z,10.03
2018-09-22T04:30:16.806Z,10.04
2018-09-22T04:32:45.972Z,10.04
2018-09-22T04:35:15.137Z,10.05
2018-09-22T04:37:44.280Z,10.04
2018-09-22T04:40:13.556Z,10.03
2018-09-22T04:42:42.718Z,10.04
2018-09-22T04:45:11.857Z,10.01
2018-09-22T04:47:41.007Z,10.00
2018-09-22T04:50:10.267Z,10.01
2018-09-22T04:52:39.460Z,10.02
2018-09-22T04:55:08.640Z,10.01
2018-09-22T04:57:38.902Z,9.98
2018-09-22T05:00:08.128Z,10.00
2018-09-22T05:02:37.300Z,10.00
2018-09-22T05:05:06.733Z,9.98
2018-09-22T05:07:35.873Z,9.97
2018-09-22T05:10:05.045Z,9.97
2018-09-22T05:12:34.268Z,9.97
2018-09-22T05:15:03.493Z,10.00
2018-09-22T05:17:32.680Z,10.03
2018-09-22T05:20:01.852Z,10.04
2018-09-22T05:22:31.010Z,10.09
2018-09-22T05:25:00.152Z,10.13
2018-09-22T05:27:29.351Z,10.17
2018-09-22T05:29:59.648Z,10.19
2018-09-22T05:32:28.785Z,10.18
2018-09-22T05:34:57.912Z,10.16
2018-09-22T05:37:27.101Z,10.18
2018-09-22T05:39:56.278Z,10.21
2018-09-22T05:42:25.439Z,10.25
2018-09-22T05:44:54.628Z,10.32
2018-09-22T05:47:23.737Z,10.35
2018-09-22T05:49:52.893Z,10.36
2018-09-22T05:52:22.032Z,10.35
2018-09-22T05:54:51.204Z,10.36
2018-09-22T05:57:20.324Z,10.36
2018-09-22T05:59:49.638Z,10.36
2018-09-22T06:02:18.787Z,10.43
2018-09-22T06:04:47.897Z,10.52
2018-09-22T06:07:17.042Z,10.61
2018-09-22T06:09:46.206Z,10.66
2018-09-22T06:12:15.450Z,10.70
2018-09-22T06:14:44.568Z,10.72
2018-09-22T06:17:14.116Z,10.73
2018-09-22T06:19:43.265Z,10.70
2018-09-22T06:22:12.412Z,10.70
2018-09-22T06:24:41.568Z,10.69
2018-09-22T06:27:10.679Z,10.67
2018-09-22T06:29:39.852Z,10.69
2018-09-22T06:32:09.642Z,10.67
2018-09-22T06:34:39.044Z,10.71
2018-09-22T06:37:08.241Z,10.74
2018-09-22T06:39:37.380Z,10.74
2018-09-22T06:42:07.573Z,10.80
2018-09-22T06:44:36.764Z,10.86
2018-09-22T06:47:05.972Z,10.90
2018-09-22T06:49:35.439Z,10.95
2018-09-22T06:52:04.651Z,10.97
2018-09-22T06:54:33.873Z,11.01
2018-09-22T06:57:03.065Z,11.06
2018-09-22T06:59:32.353Z,11.09
2018-09-22T07:02:01.558Z,11.16
2018-09-22T07:04:31.016Z,11.20
2018-09-22T07:07:00.158Z,11.24
2018-09-22T07:09:29.319Z,11.32
2018-09-22T07:11:58.585Z,11.37
2018-09-22T07:14:27.703Z,11.44
2018-09-22T07:16:56.933Z,11.53
2018-09-22T07:19:26.341Z,11.57
2018-09-22T07:22:00.887Z,11.63
2018-09-22T07:24:30.033Z,11.69
2018-09-22T07:26:59.179Z,11.75
2018-09-22T07:29:28.638Z,11.79
2018-09-22T07:31:58.857Z,11.87
2018-09-22T07:34:28.070Z,11.94
2018-09-22T07:36:57.268Z,12.02
2018-09-22T07:39:26.450Z,12.12
2018-09-22T07:41:55.696Z,12.16
2018-09-22T07:44:24.844Z,12.21
2018-09-22T07:46:54.089Z,12.29
2018-09-22T07:49:23.272Z,12.31
2018-09-22T07:51:52.413Z,12.41
2018-09-22T07:54:21.551Z,12.53
2018-09-22T07:56:50.847Z,12.58
2018-09-22T07:59:20.082Z,12.60
2018-09-22T08:01:49.533Z,12.66
2018-09-22T08:04:18.680Z,12.72
2018-09-22T08:06:48.133Z,12.79
2018-09-22T08:09:17.373Z,12.85
2018-09-22T08:11:46.940Z,12.98
2018-09-22T08:14:16.353Z,13.11
2018-09-22T08:16:45.509Z,13.21
2018-09-22T08:19:14.681Z,13.28
2018-09-22T08:21:43.875Z,13.27
2018-09-22T08:24:13.072Z,13.28
2018-09-22T08:26:42.349Z,13.33
2018-09-22T08:29:11.678Z,13.40
2018-09-22T08:31:40.867Z,13.44
2018-09-22T08:34:10.026Z,13.48
2018-09-22T08:36:39.259Z,13.60
2018-09-22T08:39:10.068Z,13.65
2018-09-22T08:41:39.249Z,13.70
2018-09-22T08:44:08.473Z,13.78
2018-09-22T08:46:38.055Z,13.73
2018-09-22T08:49:07.374Z,13.83
2018-09-22T08:51:36.797Z,13.91
2018-09-22T08:54:06.082Z,13.99
2018-09-22T08:56:35.309Z,14.12
2018-09-22T08:59:04.487Z,14.16
2018-09-22T09:01:34.785Z,14.22
2018-09-22T09:04:03.992Z,14.35
2018-09-22T09:06:34.231Z,14.41
2018-09-22T09:09:03.464Z,14.48
2018-09-22T09:11:32.671Z,14.59
2018-09-22T09:14:01.859Z,14.47
2018-09-22T09:16:31.024Z,14.44
2018-09-22T09:19:00.362Z,14.52
2018-09-22T09:21:29.502Z,14.48
2018-09-22T09:23:58.668Z,14.45
2018-09-22T09:26:28.280Z,14.65
2018-09-22T09:28:57.387Z,14.66
2018-09-22T09:31:26.534Z,14.72
2018-09-22T09:33:55.727Z,14.75
2018-09-22T09:36:24.927Z,14.76
2018-09-22T09:38:57.932Z,14.78
2018-09-22T09:41:27.060Z,14.82
2018-09-22T09:43:56.207Z,14.83
2018-09-22T09:46:25.510Z,14.80
2018-09-22T09:48:54.949Z,14.82
2018-09-22T09:51:24.223Z,14.95
2018-09-22T09:53:53.414Z,14.93
2018-09-22T09:56:22.552Z,14.97
2018-09-22T09:58:51.700Z,15.06
2018-09-22T10:01:21.161Z,15.32
2018-09-22T10:03:50.315Z,15.43
2018-09-22T10:06:19.473Z,15.32
2018-09-22T10:08:48.721Z,15.11
2018-09-22T10:11:17.928Z,15.16
2018-09-22T10:13:47.215Z,15.21
2018-09-22T10:16:16.459Z,15.19
2018-09-22T10:18:45.588Z,15.11
2018-09-22T10:21:14.737Z,15.08
2018-09-22T10:23:43.904Z,15.03
2018-09-22T10:26:13.073Z,15.28
2018-09-22T10:28:48.257Z,15.36
2018-09-22T10:31:17.894Z,15.68
2018-09-22T10:33:47.195Z,15.77
2018-09-22T10:36:16.392Z,15.86
2018-09-22T10:38:45.876Z,15.75
2018-09-22T10:41:15.077Z,15.67
2018-09-22T10:43:44.356Z,15.66
2018-09-22T10:46:13.624Z,15.59
2018-09-22T10:48:42.860Z,15.54
2018-09-22T10:51:12.188Z,15.68
2018-09-22T10:53:41.373Z,15.77
2018-09-22T10:56:10.637Z,15.77
2018-09-22T10:58:39.873Z,15.90
2018-09-22T11:01:09.128Z,15.94
2018-09-22T11:03:38.438Z,16.13
2018-09-22T11:06:07.749Z,16.39
2018-09-22T11:08:36.996Z,16.38
2018-09-22T11:11:06.258Z,16.49
2018-09-22T11:13:36.008Z,16.52
2018-09-22T11:16:05.231Z,16.70
2018-09-22T11:18:34.436Z,16.91
2018-09-22T11:21:03.616Z,16.67
2018-09-22T11:23:32.938Z,16.57
2018-09-22T11:26:02.250Z,16.20
2018-09-22T11:28:31.928Z,16.09
2018-09-22T11:31:01.097Z,16.09
2018-09-22T11:33:30.299Z,15.89
2018-09-22T11:35:59.558Z,16.11
2018-09-22T11:38:28.808Z,16.66
2018-09-22T11:40:57.968Z,16.99
2018-09-22T11:43:28.305Z,17.03
2018-09-22T11:45:57.689Z,16.79
2018-09-22T11:48:26.949Z,16.61
2018-09-22T11:50:56.193Z,16.45
2018-09-22T11:53:25.390Z,16.37
2018-09-22T11:55:55.672Z,16.30
2018-09-22T11:58:25.421Z,16.30
2018-09-22T12:00:57.792Z,16.18
2018-09-22T12:03:27.080Z,16.02
2018-09-22T12:06:10.995Z,16.08
2018-09-22T12:08:40.361Z,16.27
2018-09-22T12:11:09.617Z,16.50
2018-09-22T12:13:47.850Z,16.36
2018-09-22T12:16:17.156Z,16.47
2018-09-22T12:18:46.406Z,16.58
2018-09-22T12:21:15.639Z,16.58
2018-09-22T12:23:45.131Z,16.46
2018-09-22T12:26:14.440Z,16.44
2018-09-22T12:28:46.426Z,16.30
2018-09-22T12:31:16.045Z,16.31
2018-09-22T12:33:45.786Z,16.27
2018-09-22T12:36:15.190Z,16.31
2018-09-22T12:38:44.646Z,16.23
2018-09-22T12:41:13.919Z,16.24
2018-09-22T12:43:43.328Z,16.17
2018-09-22T12:46:15.983Z,16.28
2018-09-22T12:48:45.762Z,16.33
2018-09-22T12:57:14.797Z,16.40
2018-09-22T12:59:44.162Z,16.32
2018-09-22T13:02:13.974Z,16.54
2018-09-22T13:04:43.385Z,16.45
2018-09-22T13:07:12.787Z,16.45
2018-09-22T13:09:41.961Z,16.47
2018-09-22T13:12:11.117Z,16.55
2018-09-22T13:14:42.505Z,16.44
2018-09-22T13:17:11.864Z,16.39
2018-09-22T13:19:41.092Z,16.29
2018-09-22T13:22:10.345Z,16.28
2018-09-22T13:24:39.548Z,16.27
2018-09-22T13:27:09.038Z,16.29
2018-09-22T13:29:38.450Z,16.23
2018-09-22T13:32:07.730Z,16.16
2018-09-22T13:34:36.992Z,16.20
2018-09-22T13:37:06.823Z,16.15
2018-09-22T13:39:36.100Z,16.19
2018-09-22T13:42:05.388Z,16.20
2018-09-22T13:44:34.601Z,16.16
2018-09-22T13:47:04.041Z,15.93
2018-09-22T13:49:33.410Z,15.81
2018-09-22T13:52:02.659Z,15.85
2018-09-22T13:54:32.651Z,15.63
2018-09-22T13:57:02.403Z,15.68
2018-09-22T13:59:32.563Z,15.67
2018-09-22T14:02:01.999Z,15.75
2018-09-22T14:04:31.539Z,15.67
2018-09-22T14:07:00.859Z,15.76
2018-09-22T14:09:30.156Z,15.80
2018-09-22T14:11:59.441Z,15.75
2018-09-22T14:14:47.541Z,15.76
2018-09-22T14:17:21.652Z,15.59
2018-09-22T14:19:52.753Z,15.48
2018-09-22T14:22:31.462Z,15.41
2018-09-22T14:25:01.340Z,15.28
2018-09-22T14:27:31.230Z,15.23
2018-09-22T14:30:01.495Z,15.13
2018-09-22T14:32:31.049Z,14.96
2018-09-22T14:35:00.318Z,14.85
2018-09-22T14:37:29.506Z,14.80
2018-09-22T14:39:59.754Z,14.83
2018-09-22T14:42:28.999Z,14.94
2018-09-22T14:44:58.255Z,15.04
2018-09-22T14:47:29.518Z,15.07
2018-09-22T14:49:58.813Z,15.11
2018-09-22T14:52:28.184Z,15.03
2018-09-22T14:54:58.369Z,15.04
2018-09-22T14:57:27.601Z,15.02
2018-09-22T14:59:56.767Z,14.85
2018-09-22T15:02:25.993Z,14.85
2018-09-22T15:04:55.171Z,14.89
2018-09-22T15:07:25.388Z,14.98
2018-09-22T15:09:54.554Z,15.01
2018-09-22T15:12:23.742Z,15.09
2018-09-22T15:14:53.009Z,15.11
2018-09-22T15:17:44.057Z,15.05
2018-09-22T15:20:24.042Z,14.95
2018-09-22T15:22:53.292Z,14.89
2018-09-22T15:25:22.522Z,14.92
2018-09-22T15:27:51.790Z,14.90
2018-09-22T15:30:21.017Z,14.89
2018-09-22T15:32:50.266Z,14.89
2018-09-22T15:35:19.529Z,14.84
2018-09-22T15:37:48.768Z,14.86
2018-09-22T15:40:17.931Z,14.82
2018-09-22T15:42:48.200Z,14.75
2018-09-22T15:45:17.465Z,14.65
2018-09-22T15:47:46.687Z,14.54
2018-09-22T15:50:17.949Z,14.42
2018-09-22T15:52:51.327Z,14.41
2018-09-22T15:55:20.588Z,14.33
2018-09-22T15:57:49.901Z,14.24
2018-09-22T16:00:19.075Z,14.18
2018-09-22T16:02:48.285Z,14.13
2018-09-22T16:05:17.708Z,14.08
2018-09-22T16:07:46.950Z,13.99
2018-09-22T16:10:16.210Z,13.96
2018-09-22T16:12:45.422Z,13.97
2018-09-22T16:15:14.948Z,13.90
2018-09-22T16:17:44.211Z,13.93
2018-09-22T16:20:13.464Z,13.80
2018-09-22T16:22:44.741Z,13.75
2018-09-22T16:25:13.938Z,13.62
2018-09-22T16:27:43.182Z,13.54
2018-09-22T16:30:12.410Z,13.46
2018-09-22T16:32:42.599Z,13.51
2018-09-22T16:35:12.009Z,13.49
2018-09-22T16:37:41.182Z,13.47
2018-09-22T16:40:10.339Z,13.36
2018-09-22T16:42:39.588Z,13.30
2018-09-22T16:45:08.785Z,13.28
2018-09-22T16:47:37.969Z,13.20
2018-09-22T16:50:07.420Z,13.19
2018-09-22T16:52:40.117Z,13.19
2018-09-22T16:55:09.439Z,13.12
2018-09-22T16:57:38.626Z,13.13
2018-09-22T17:00:08.081Z,13.16
2018-09-22T17:02:37.282Z,13.10
2018-09-22T17:05:06.589Z,13.13
2018-09-22T17:07:35.843Z,13.13
2018-09-22T17:10:05.320Z,13.11
2018-09-22T17:12:34.754Z,13.05
2018-09-22T17:15:04.389Z,13.05
2018-09-22T17:17:33.692Z,13.02
2018-09-22T17:20:02.909Z,12.96
2018-09-22T17:22:32.087Z,12.98
2018-09-22T17:25:01.460Z,12.94
2018-09-22T17:27:30.861Z,12.93
2018-09-22T17:29:59.949Z,12.90
2018-09-22T17:32:29.242Z,12.88
2018-09-22T17:34:58.515Z,12.86
2018-09-22T17:37:27.726Z,12.81
2018-09-22T17:39:56.973Z,12.75
2018-09-22T17:42:26.114Z,12.68
2018-09-22T17:44:55.369Z,12.65
2018-09-22T17:47:24.639Z,12.55
2018-09-22T17:49:53.849Z,12.52
2018-09-22T17:52:23.017Z,12.43
2018-09-22T17:54:52.199Z,12.34
2018-09-22T17:57:21.380Z,12.36
2018-09-22T17:59:50.611Z,12.33
2018-09-22T18:02:19.781Z,12.28
2018-09-22T18:04:48.947Z,12.23
2018-09-22T18:07:18.221Z,12.25
2018-09-22T18:09:48.001Z,12.19
2018-09-22T18:12:17.215Z,12.17
2018-09-22T18:14:46.392Z,12.13
2018-09-22T18:17:15.988Z,12.17
2018-09-22T18:21:43.923Z,12.15
2018-09-22T18:24:13.557Z,12.15
2018-09-22T18:26:42.772Z,12.12
2018-09-22T18:29:12.050Z,12.13
2018-09-22T18:31:41.276Z,12.02
2018-09-22T18:34:10.438Z,11.97
2018-09-22T18:36:39.581Z,11.94
2018-09-22T18:39:09.115Z,11.91
2018-09-22T18:41:38.583Z,11.79
2018-09-22T18:44:07.807Z,11.74
2018-09-22T18:46:37.787Z,11.69
2018-09-22T18:49:13.716Z,11.67
2018-09-22T18:51:44.161Z,11.64
2018-09-22T18:54:13.513Z,11.63
2018-09-22T18:56:42.829Z,11.63
2018-09-22T18:59:12.027Z,11.63
2018-09-22T19:01:41.207Z,11.56
2018-09-22T19:04:10.420Z,11.57
2018-09-22T19:06:39.756Z,11.49
2018-09-22T19:09:09.729Z,11.42
2018-09-22T19:11:38.984Z,11.38
2018-09-22T19:14:16.022Z,11.32
2018-09-22T19:16:56.032Z,11.32
2018-09-22T19:19:35.509Z,11.33
2018-09-22T19:22:07.656Z,11.31
2018-09-22T19:24:44.276Z,11.22
2018-09-22T19:27:17.161Z,11.14
2018-09-22T19:29:52.219Z,11.04
2018-09-22T19:32:26.128Z,11.07
2018-09-22T19:34:58.920Z,11.01
2018-09-22T19:37:32.923Z,10.96
2018-09-22T19:40:08.269Z,10.93
2018-09-22T19:42:42.980Z,10.85
2018-09-22T19:45:16.457Z,10.76
2018-09-22T19:47:54.232Z,10.75
2018-09-22T19:50:27.900Z,10.79
2018-09-22T19:52:57.230Z,10.80
2018-09-22T19:55:26.436Z,10.84
2018-09-22T19:57:55.582Z,10.90
2018-09-22T20:00:24.820Z,10.90
2018-09-22T20:02:54.005Z,10.91
2018-09-22T20:05:23.157Z,10.90
2018-09-22T20:07:52.326Z,10.87
2018-09-22T20:10:21.480Z,10.86
2018-09-22T20:12:50.765Z,10.85
2018-09-22T20:20:17.520Z,10.76
2018-09-22T20:22:46.857Z,10.72
2018-09-22T20:25:16.060Z,10.66
2018-09-22T20:27:45.238Z,10.66
2018-09-22T20:30:14.475Z,10.58
2018-09-22T20:32:43.647Z,10.51
2018-09-22T20:35:12.864Z,10.48
2018-09-22T20:37:42.065Z,10.46
2018-09-22T20:40:11.324Z,10.43
2018-09-22T20:42:40.558Z,10.41
2018-09-22T20:45:10.017Z,10.40
2018-09-22T20:47:39.365Z,10.38
2018-09-22T20:50:08.725Z,10.36
2018-09-22T20:52:38.032Z,10.36
2018-09-22T20:55:07.232Z,10.36
2018-09-22T20:57:36.542Z,10.36
2018-09-22T21:00:06.976Z,10.32
2018-09-22T21:02:36.446Z,10.30
2018-09-22T21:05:05.734Z,10.27
2018-09-22T21:07:35.266Z,10.34
2018-09-22T21:10:04.598Z,10.36
2018-09-22T21:12:33.993Z,10.30
2018-09-22T21:15:03.135Z,10.30
2018-09-22T21:17:32.380Z,10.26
2018-09-22T21:20:01.563Z,10.23
2018-09-22T21:22:30.755Z,10.22
2018-09-22T21:25:00.892Z,10.22
2018-09-22T21:27:30.024Z,10.25
2018-09-22T21:29:59.146Z,10.25
2018-09-22T21:32:28.419Z,10.20
2018-09-22T21:34:57.612Z,10.20
2018-09-22T21:37:26.744Z,10.20
2018-09-22T21:39:55.959Z,10.21
2018-09-22T21:42:25.119Z,10.20
2018-09-22T21:44:54.285Z,10.17
2018-09-22T21:47:23.499Z,10.18
2018-09-22T21:49:52.668Z,10.18
2018-09-22T21:52:21.926Z,10.17
2018-09-22T21:54:51.277Z,10.18
2018-09-22T21:57:20.341Z,10.16
2018-09-22T21:59:49.577Z,10.15
2018-09-22T22:02:18.728Z,10.15
2018-09-22T22:04:48.028Z,10.13
2018-09-22T22:07:17.732Z,10.10
2018-09-22T22:09:46.864Z,10.09
2018-09-22T22:12:16.001Z,10.12
2018-09-22T22:14:45.123Z,10.10
2018-09-22T22:17:14.512Z,10.07
2018-09-22T22:19:43.653Z,10.07
2018-09-22T22:22:12.807Z,10.06
2018-09-22T22:24:42.091Z,10.01
2018-09-22T22:27:11.279Z,9.97
2018-09-22T22:29:40.626Z,9.95
2018-09-22T22:32:09.783Z,9.88
2018-09-22T22:34:38.904Z,9.86
2018-09-22T22:37:08.165Z,9.84
2018-09-22T22:39:37.338Z,9.80
2018-09-22T22:42:06.529Z,9.79
2018-09-22T22:44:35.706Z,9.77
2018-09-22T22:47:04.840Z,9.74
2018-09-22T22:49:34.073Z,9.73
2018-09-22T22:52:03.217Z,9.70
2018-09-22T22:54:32.312Z,9.67
2018-09-22T22:57:01.425Z,9.66
2018-09-22T22:59:30.984Z,9.64
2018-09-22T23:02:00.149Z,9.63
2018-09-22T23:04:29.277Z,9.63
2018-09-22T23:06:58.452Z,9.61
2018-09-22T23:09:27.701Z,9.62
2018-09-22T23:11:56.864Z,9.66
2018-09-22T23:14:26.018Z,9.67
2018-09-22T23:16:55.164Z,9.69
2018-09-22T23:19:24.552Z,9.71
2018-09-22T23:21:53.714Z,9.72
2018-09-22T23:24:22.886Z,9.70
2018-09-22T23:26:52.203Z,9.67
2018-09-22T23:29:21.370Z,9.66
2018-09-22T23:31:50.632Z,9.66
2018-09-22T23:34:19.949Z,9.67
2018-09-22T23:36:49.850Z,9.67
2018-09-22T23:39:19.004Z,9.66
2018-09-22T23:41:48.265Z,9.66
2018-09-22T23:44:17.459Z,9.64
2018-09-22T23:46:46.604Z,9.63
2018-09-22T23:49:15.793Z,9.62
2018-09-22T23:51:44.952Z,9.56
2018-09-22T23:54:14.101Z,9.54
2018-09-22T23:56:43.329Z,9.54
2018-09-22T23:59:12.456Z,9.53
